createdAt,value
2022-08-11T00:00:05.843Z,1.94
2022-08-11T00:01:38.451Z,2.37
2022-08-11T00:03:10.357Z,1.92
2022-08-11T00:04:42.203Z,1.82
2022-08-11T00:06:14.362Z,1.87
2022-08-11T00:07:46.512Z,1.85
2022-08-11T00:09:18.210Z,1.70
2022-08-11T00:10:50.323Z,2.06
2022-08-11T00:12:24.192Z,1.96
2022-08-11T00:13:55.837Z,1.81
2022-08-11T00:15:27.526Z,1.84
2022-08-11T00:16:59.488Z,1.91
2022-08-11T00:18:31.046Z,1.92
2022-08-11T00:20:11.837Z,1.96
2022-08-11T00:22:05.033Z,1.90
2022-08-11T00:23:43.193Z,1.78
2022-08-11T00:25:14.995Z,1.89
2022-08-11T00:26:46.853Z,1.96
2022-08-11T00:28:18.727Z,1.97
2022-08-11T00:29:55.797Z,1.90
2022-08-11T00:31:34.748Z,1.92
2022-08-11T00:33:06.597Z,1.78
2022-08-11T00:34:38.316Z,1.88
2022-08-11T00:36:10.022Z,2.18
2022-08-11T00:37:41.945Z,2.17
2022-08-11T00:39:14.022Z,2.06
2022-08-11T00:40:46.037Z,1.72
2022-08-11T00:42:17.790Z,1.72
2022-08-11T00:43:50.498Z,1.75
2022-08-11T00:45:23.528Z,2.10
2022-08-11T00:46:55.461Z,1.82
2022-08-11T00:48:27.231Z,2.16
2022-08-11T00:49:59.731Z,1.93
2022-08-11T00:52:05.106Z,1.90
2022-08-11T00:53:37.617Z,1.71
2022-08-11T00:55:09.254Z,1.82
2022-08-11T00:56:41.251Z,1.80
2022-08-11T00:58:12.814Z,1.76
2022-08-11T00:59:44.658Z,1.57
2022-08-11T01:01:16.388Z,1.93
2022-08-11T01:02:48.449Z,2.03
2022-08-11T01:04:25.512Z,1.89
2022-08-11T01:05:58.722Z,2.00
2022-08-11T01:08:01.838Z,1.94
2022-08-11T01:09:35.100Z,1.80
2022-08-11T01:11:06.927Z,1.69
2022-08-11T01:12:39.096Z,1.79
2022-08-11T01:14:11.184Z,1.96
2022-08-11T01:15:42.729Z,1.70
2022-08-11T01:17:27.645Z,1.98
2022-08-11T01:18:59.334Z,1.71
2022-08-11T01:20:48.431Z,1.90
2022-08-11T01:22:20.688Z,1.87
2022-08-11T01:23:52.520Z,2.03
2022-08-11T01:25:24.189Z,1.83
2022-08-11T01:26:55.939Z,1.93
2022-08-11T01:28:27.820Z,1.86
2022-08-11T01:30:00.390Z,1.85
2022-08-11T01:31:32.167Z,1.83
2022-08-11T01:33:04.130Z,1.89
2022-08-11T01:34:35.994Z,1.78
2022-08-11T01:36:07.979Z,1.82
2022-08-11T01:37:40.243Z,1.85
2022-08-11T01:39:12.009Z,2.10
2022-08-11T01:40:50.060Z,2.13
2022-08-11T01:42:22.046Z,2.05
2022-08-11T01:43:53.880Z,1.87
2022-08-11T01:45:25.780Z,1.75
2022-08-11T01:46:57.605Z,1.99
2022-08-11T01:48:29.360Z,1.82
2022-08-11T01:50:09.619Z,2.07
2022-08-11T01:51:45.267Z,2.08
2022-08-11T01:53:17.109Z,1.97
2022-08-11T01:54:49.448Z,1.98
2022-08-11T01:56:21.295Z,2.02
2022-08-11T01:57:53.154Z,2.05
2022-08-11T01:59:24.818Z,2.08
2022-08-11T02:00:56.854Z,2.11
2022-08-11T02:02:28.826Z,2.18
2022-08-11T02:04:00.606Z,1.98
2022-08-11T02:05:32.255Z,1.73
2022-08-11T02:07:09.153Z,2.11
2022-08-11T02:08:44.170Z,1.99
2022-08-11T02:10:19.356Z,2.20
2022-08-11T02:11:54.150Z,2.21
2022-08-11T02:13:32.395Z,2.29
2022-08-11T02:15:08.628Z,2.34
2022-08-11T02:16:40.318Z,2.16
2022-08-11T02:18:11.829Z,1.97
2022-08-11T02:19:45.350Z,2.31
2022-08-11T02:21:17.885Z,2.39
2022-08-11T02:22:49.847Z,2.08
2022-08-11T02:24:21.485Z,2.13
2022-08-11T02:25:53.087Z,2.12
2022-08-11T02:27:24.971Z,2.17
2022-08-11T02:29:01.738Z,2.34
2022-08-11T02:30:33.736Z,2.36
2022-08-11T02:32:24.223Z,2.39
2022-08-11T02:34:01.988Z,2.13
2022-08-11T02:35:33.736Z,2.22
2022-08-11T02:37:05.495Z,2.23
2022-08-11T02:38:37.448Z,2.27
2022-08-11T02:40:09.177Z,2.05
2022-08-11T02:41:40.967Z,2.23
2022-08-11T02:43:12.757Z,2.33
2022-08-11T02:44:44.677Z,2.43
2022-08-11T02:46:18.404Z,2.53
2022-08-11T02:47:50.706Z,2.44
2022-08-11T02:49:22.823Z,2.51
2022-08-11T02:50:54.656Z,2.33
2022-08-11T02:52:26.387Z,2.31
2022-08-11T02:53:58.503Z,2.39
2022-08-11T02:55:46.970Z,2.36
2022-08-11T02:57:29.480Z,2.47
2022-08-11T02:59:01.210Z,2.94
2022-08-11T03:00:33.052Z,2.40
2022-08-11T03:02:05.154Z,2.20
2022-08-11T03:03:37.546Z,2.38
2022-08-11T03:05:09.654Z,2.30
2022-08-11T03:06:41.505Z,2.25
2022-08-11T03:08:13.429Z,2.22
2022-08-11T03:09:45.699Z,2.28
2022-08-11T03:11:18.187Z,2.38
2022-08-11T03:12:53.528Z,2.29
2022-08-11T03:14:25.572Z,2.43
2022-08-11T03:16:00.284Z,2.34
2022-08-11T03:17:32.305Z,2.30
2022-08-11T03:19:04.187Z,2.27
2022-08-11T03:20:38.343Z,2.38
2022-08-11T03:22:11.075Z,2.54
2022-08-11T03:23:43.143Z,2.69
2022-08-11T03:25:15.004Z,2.24
2022-08-11T03:26:46.769Z,2.62
2022-08-11T03:28:19.752Z,2.42
2022-08-11T03:29:56.798Z,2.57
2022-08-11T03:31:28.410Z,2.47
2022-08-11T03:33:00.231Z,2.39
2022-08-11T03:34:32.068Z,2.64
2022-08-11T03:36:04.052Z,2.24
2022-08-11T03:37:35.824Z,2.27
2022-08-11T03:39:07.667Z,2.19
2022-08-11T03:40:39.872Z,2.69
2022-08-11T03:42:11.566Z,2.45
2022-08-11T03:43:45.815Z,2.74
2022-08-11T03:45:30.081Z,2.43
2022-08-11T03:47:02.116Z,2.60
2022-08-11T03:48:33.874Z,2.48
2022-08-11T03:50:05.718Z,2.27
2022-08-11T03:51:51.934Z,2.21
2022-08-11T03:53:24.199Z,2.33
2022-08-11T03:54:56.098Z,2.21
2022-08-11T03:56:27.959Z,2.41
2022-08-11T03:57:59.908Z,2.46
2022-08-11T04:01:45.361Z,2.45
2022-08-11T04:03:17.291Z,2.56
2022-08-11T04:04:51.627Z,2.47
2022-08-11T04:06:24.534Z,2.23
2022-08-11T04:07:56.249Z,2.40
2022-08-11T04:09:28.101Z,2.59
2022-08-11T04:11:00.484Z,2.46
2022-08-11T04:12:35.775Z,2.53
2022-08-11T04:14:08.856Z,2.56
2022-08-11T04:15:40.813Z,2.64
2022-08-11T04:17:12.682Z,2.64
2022-08-11T04:18:44.456Z,2.41
2022-08-11T04:20:16.288Z,2.59
2022-08-11T04:21:48.295Z,2.48
2022-08-11T04:24:34.402Z,2.46
2022-08-11T04:26:18.846Z,2.61
2022-08-11T04:27:51.062Z,2.33
2022-08-11T04:29:24.218Z,2.54
2022-08-11T04:31:08.215Z,2.54
2022-08-11T04:32:42.264Z,2.46
2022-08-11T04:34:13.754Z,2.64
2022-08-11T04:36:05.650Z,2.55
2022-08-11T04:37:38.314Z,2.45
2022-08-11T04:39:10.333Z,2.60
2022-08-11T04:40:42.418Z,2.61
2022-08-11T04:42:14.620Z,2.76
2022-08-11T04:44:02.577Z,2.65
2022-08-11T04:45:43.782Z,2.66
2022-08-11T04:47:15.611Z,2.60
2022-08-11T04:48:47.666Z,2.48
2022-08-11T04:50:19.508Z,2.78
2022-08-11T04:51:51.431Z,2.61
2022-08-11T04:53:23.075Z,2.78
2022-08-11T04:54:58.043Z,2.93
2022-08-11T04:56:30.162Z,2.64
2022-08-11T04:58:02.492Z,2.74
2022-08-11T04:59:34.210Z,2.74
2022-08-11T05:01:06.069Z,2.79
2022-08-11T05:02:38.408Z,2.72
2022-08-11T05:04:10.565Z,2.80
2022-08-11T05:05:54.663Z,2.61
2022-08-11T05:07:29.084Z,2.86
2022-08-11T05:09:06.429Z,3.00
2022-08-11T05:10:41.420Z,2.79
2022-08-11T05:12:15.369Z,2.79
2022-08-11T05:13:47.397Z,2.90
2022-08-11T05:15:19.207Z,2.90
2022-08-11T05:16:51.151Z,2.94
2022-08-11T05:18:22.964Z,2.77
2022-08-11T05:19:54.886Z,3.01
2022-08-11T05:21:26.621Z,2.91
2022-08-11T05:22:58.544Z,2.96
2022-08-11T05:24:30.674Z,2.87
2022-08-11T05:26:44.985Z,2.87
2022-08-11T05:28:20.386Z,2.97
2022-08-11T05:29:52.109Z,3.09
2022-08-11T05:31:23.998Z,2.78
2022-08-11T05:33:00.959Z,2.90
2022-08-11T05:34:33.598Z,2.89
2022-08-11T05:36:05.707Z,2.97
2022-08-11T05:37:37.841Z,2.88
2022-08-11T05:39:09.667Z,2.92
2022-08-11T05:40:41.686Z,3.18
2022-08-11T05:42:29.850Z,2.99
2022-08-11T05:44:21.174Z,2.95
2022-08-11T05:46:02.862Z,2.94
2022-08-11T05:47:41.141Z,2.98
2022-08-11T05:49:13.098Z,2.89
2022-08-11T05:50:44.705Z,2.76
2022-08-11T05:52:16.856Z,2.94
2022-08-11T05:53:48.863Z,3.05
2022-08-11T05:55:27.924Z,2.83
2022-08-11T05:57:00.148Z,2.88
2022-08-11T05:58:32.276Z,2.77
2022-08-11T06:00:03.973Z,3.25
2022-08-11T06:01:36.654Z,2.83
2022-08-11T06:03:08.538Z,3.06
2022-08-11T06:04:40.203Z,2.78
2022-08-11T06:06:12.109Z,2.98
2022-08-11T06:07:48.499Z,2.70
2022-08-11T06:09:21.237Z,3.05
2022-08-11T06:10:52.973Z,3.04
2022-08-11T06:12:25.002Z,2.88
2022-08-11T06:13:57.627Z,2.93
2022-08-11T06:15:29.496Z,2.80
2022-08-11T06:17:06.464Z,2.75
2022-08-11T06:18:38.455Z,2.78
2022-08-11T06:20:20.071Z,2.68
2022-08-11T06:21:52.014Z,2.92
2022-08-11T06:23:24.377Z,2.64
2022-08-11T06:24:55.907Z,2.85
2022-08-11T06:26:27.524Z,2.79
2022-08-11T06:27:59.577Z,2.77
2022-08-11T06:29:37.578Z,2.69
2022-08-11T06:31:19.146Z,2.68
2022-08-11T06:32:50.925Z,2.53
2022-08-11T06:34:27.720Z,2.74
2022-08-11T06:36:05.841Z,2.94
2022-08-11T06:37:37.887Z,2.70
2022-08-11T06:39:09.709Z,2.91
2022-08-11T06:40:41.777Z,2.77
2022-08-11T06:42:13.651Z,2.57
2022-08-11T06:43:55.401Z,2.66
2022-08-11T06:45:28.517Z,2.56
2022-08-11T06:47:00.204Z,2.69
2022-08-11T06:48:31.937Z,2.69
2022-08-11T06:50:03.460Z,2.90
2022-08-11T06:51:35.602Z,2.92
2022-08-11T06:53:07.573Z,2.81
2022-08-11T06:54:45.700Z,2.57
2022-08-11T06:56:17.590Z,2.74
2022-08-11T06:57:49.103Z,2.51
2022-08-11T06:59:31.110Z,2.58
2022-08-11T07:01:07.968Z,2.83
2022-08-11T07:02:40.934Z,2.53
2022-08-11T07:04:13.004Z,2.62
2022-08-11T07:05:45.109Z,2.52
2022-08-11T07:07:16.962Z,2.50
2022-08-11T07:08:48.942Z,2.64
2022-08-11T07:10:20.999Z,2.32
2022-08-11T07:11:52.456Z,2.54
2022-08-11T07:13:38.264Z,2.65
2022-08-11T07:15:17.535Z,2.49
2022-08-11T07:16:49.238Z,2.62
2022-08-11T07:18:21.378Z,2.87
2022-08-11T07:19:53.394Z,2.69
2022-08-11T07:22:00.776Z,2.93
2022-08-11T07:23:34.954Z,2.67
2022-08-11T07:25:06.638Z,2.62
2022-08-11T07:26:38.513Z,2.58
2022-08-11T07:28:10.639Z,2.59
2022-08-11T07:29:42.166Z,2.63
2022-08-11T07:31:13.882Z,2.51
2022-08-11T07:32:50.662Z,2.98
2022-08-11T07:34:22.118Z,2.49
2022-08-11T07:35:53.872Z,2.61
2022-08-11T07:37:25.556Z,2.56
2022-08-11T07:38:57.359Z,2.63
2022-08-11T07:40:29.266Z,2.65
2022-08-11T07:42:01.337Z,2.75
2022-08-11T07:43:33.023Z,2.78
2022-08-11T07:45:04.685Z,2.47
2022-08-11T07:46:36.555Z,2.68
2022-08-11T07:48:08.410Z,3.05
2022-08-11T07:49:42.887Z,2.76
2022-08-11T07:51:14.627Z,2.81
2022-08-11T07:52:46.223Z,2.55
2022-08-11T07:54:24.115Z,2.68
2022-08-11T07:56:00.537Z,2.60
2022-08-11T07:58:04.386Z,2.59
2022-08-11T08:00:00.393Z,2.63
2022-08-11T08:01:36.120Z,2.55
2022-08-11T08:03:07.938Z,2.76
2022-08-11T08:04:43.052Z,2.71
2022-08-11T08:06:35.439Z,2.62
2022-08-11T08:08:08.498Z,2.64
2022-08-11T08:09:41.114Z,2.66
2022-08-11T08:11:12.858Z,2.59
2022-08-11T08:12:44.621Z,2.72
2022-08-11T08:14:17.455Z,2.73
2022-08-11T08:15:49.291Z,2.60
2022-08-11T08:17:21.195Z,2.73
2022-08-11T08:18:58.860Z,2.59
2022-08-11T08:20:30.538Z,2.89
2022-08-11T08:22:10.905Z,2.91
2022-08-11T08:24:10.509Z,2.82
2022-08-11T08:25:42.263Z,3.06
2022-08-11T08:27:14.096Z,2.95
2022-08-11T08:28:46.036Z,2.79
2022-08-11T08:30:17.624Z,3.15
2022-08-11T08:31:49.284Z,2.64
2022-08-11T08:33:21.061Z,2.65
2022-08-11T08:34:52.997Z,2.68
2022-08-11T08:36:24.898Z,2.69
2022-08-11T08:37:56.508Z,2.66
2022-08-11T08:39:28.389Z,2.82
2022-08-11T08:41:00.276Z,2.68
2022-08-11T08:42:39.647Z,2.70
2022-08-11T08:44:37.297Z,2.55
2022-08-11T08:46:15.350Z,2.70
2022-08-11T08:47:51.062Z,2.43
2022-08-11T08:49:25.057Z,2.64
2022-08-11T08:50:57.117Z,2.70
2022-08-11T08:52:43.574Z,2.69
2022-08-11T08:54:30.592Z,2.54
2022-08-11T08:56:02.419Z,2.91
2022-08-11T08:57:39.317Z,2.54
2022-08-11T08:59:12.073Z,2.73
2022-08-11T09:00:43.935Z,2.57
2022-08-11T09:02:15.802Z,2.52
2022-08-11T09:04:07.268Z,2.74
2022-08-11T09:05:42.230Z,2.34
2022-08-11T09:07:13.946Z,2.68
2022-08-11T09:08:45.591Z,2.77
2022-08-11T09:10:27.457Z,2.53
2022-08-11T09:11:59.274Z,2.50
2022-08-11T09:13:31.034Z,2.48
2022-08-11T09:15:02.922Z,2.56
2022-08-11T09:16:39.916Z,2.57
2022-08-11T09:18:11.566Z,2.58
2022-08-11T09:19:43.276Z,2.57
2022-08-11T09:21:47.981Z,2.36
2022-08-11T09:25:22.675Z,2.52
2022-08-11T09:26:54.286Z,2.42
2022-08-11T09:28:26.121Z,2.38
2022-08-11T09:29:57.747Z,2.19
2022-08-11T09:31:29.507Z,2.31
2022-08-11T09:33:01.453Z,2.34
2022-08-11T09:34:33.819Z,2.45
2022-08-11T09:36:05.837Z,2.53
2022-08-11T09:37:55.672Z,2.38
2022-08-11T09:39:28.189Z,2.34
2022-08-11T09:41:04.720Z,2.42
2022-08-11T09:42:36.535Z,2.53
2022-08-11T09:44:13.778Z,2.26
2022-08-11T09:45:45.540Z,2.20
2022-08-11T09:47:17.142Z,2.37
2022-08-11T09:48:48.919Z,2.18
2022-08-11T09:50:20.677Z,2.23
2022-08-11T09:52:03.414Z,2.27
2022-08-11T09:53:41.331Z,2.22
2022-08-11T09:55:13.131Z,2.16
2022-08-11T09:56:44.962Z,2.13
2022-08-11T09:58:41.681Z,2.11
2022-08-11T10:00:15.039Z,2.18
2022-08-11T10:01:47.326Z,2.02
2022-08-11T10:03:29.564Z,1.92
2022-08-11T10:05:01.346Z,1.85
2022-08-11T10:06:38.114Z,2.07
2022-08-11T10:08:10.215Z,2.18
2022-08-11T10:09:51.832Z,2.20
2022-08-11T10:11:28.724Z,2.21
2022-08-11T10:13:00.521Z,2.06
2022-08-11T10:14:35.055Z,1.98
2022-08-11T10:16:15.328Z,2.26
2022-08-11T10:18:06.449Z,2.19
2022-08-11T10:19:43.092Z,2.14
2022-08-11T10:21:14.690Z,2.05
2022-08-11T10:22:47.169Z,1.96
2022-08-11T10:24:18.965Z,2.07
2022-08-11T10:25:50.733Z,2.12
2022-08-11T10:27:26.002Z,1.98
2022-08-11T10:29:12.742Z,2.05
2022-08-11T10:30:45.461Z,2.03
2022-08-11T10:32:22.539Z,2.05
2022-08-11T10:34:02.426Z,2.19
2022-08-11T10:35:44.312Z,1.93
2022-08-11T10:37:16.143Z,2.07
2022-08-11T10:38:47.873Z,2.00
2022-08-11T10:40:21.006Z,2.01
2022-08-11T10:42:02.840Z,2.10
2022-08-11T10:44:02.599Z,1.92
2022-08-11T10:45:35.591Z,1.91
2022-08-11T10:47:12.195Z,2.08
2022-08-11T10:48:48.913Z,2.22
2022-08-11T10:50:20.525Z,2.05
2022-08-11T10:51:53.937Z,2.01
2022-08-11T10:53:29.312Z,2.10
2022-08-11T10:55:06.247Z,2.02
2022-08-11T10:56:42.869Z,1.71
2022-08-11T10:58:14.593Z,1.93
2022-08-11T10:59:46.157Z,2.36
2022-08-11T11:01:17.992Z,2.22
2022-08-11T11:03:05.397Z,2.39
2022-08-11T11:04:55.122Z,2.26
2022-08-11T11:06:29.174Z,2.10
2022-08-11T11:08:01.880Z,2.12
2022-08-11T11:09:38.749Z,2.27
2022-08-11T11:11:10.720Z,1.84
2022-08-11T11:13:00.211Z,2.09
2022-08-11T11:14:31.873Z,1.98
2022-08-11T11:16:11.887Z,1.92
2022-08-11T11:17:44.040Z,2.10
2022-08-11T11:19:15.759Z,2.03
2022-08-11T11:20:48.059Z,2.08
2022-08-11T11:22:20.018Z,2.27
2022-08-11T11:23:52.092Z,2.04
2022-08-11T11:25:23.731Z,1.89
2022-08-11T11:26:55.504Z,2.10
2022-08-11T11:28:27.251Z,2.02
2022-08-11T11:30:04.498Z,2.09
2022-08-11T11:31:36.679Z,2.11
2022-08-11T11:33:08.952Z,1.87
2022-08-11T11:34:47.956Z,1.96
2022-08-11T11:36:25.253Z,1.98
2022-08-11T11:38:04.360Z,2.14
2022-08-11T11:39:37.179Z,1.99
2022-08-11T11:41:09.231Z,2.04
2022-08-11T11:42:41.291Z,2.23
2022-08-11T11:44:13.155Z,1.85
2022-08-11T11:45:50.106Z,2.26
2022-08-11T11:47:26.933Z,1.89
2022-08-11T11:48:59.725Z,1.93
2022-08-11T11:50:37.445Z,2.02
2022-08-11T11:52:09.409Z,1.83
2022-08-11T11:53:41.692Z,2.21
2022-08-11T11:55:18.560Z,1.91
2022-08-11T11:56:50.463Z,1.95
2022-08-11T11:58:22.431Z,1.93
2022-08-11T11:59:54.195Z,2.01
2022-08-11T12:01:25.928Z,2.06
2022-08-11T12:02:57.883Z,2.06
2022-08-11T12:04:29.564Z,1.95
2022-08-11T12:06:01.399Z,2.02
2022-08-11T12:07:33.271Z,2.09
2022-08-11T12:09:05.003Z,2.21
2022-08-11T12:10:36.705Z,2.25
2022-08-11T12:12:09.708Z,2.19
2022-08-11T12:13:41.485Z,2.10
2022-08-11T12:15:13.302Z,2.04
2022-08-11T12:16:45.007Z,2.21
2022-08-11T12:18:16.893Z,2.18
2022-08-11T12:19:48.768Z,2.13
2022-08-11T12:21:20.602Z,1.87
2022-08-11T12:23:02.453Z,1.88
2022-08-11T12:24:34.163Z,2.04
2022-08-11T12:26:25.407Z,2.03
2022-08-11T12:30:14.793Z,2.16
2022-08-11T12:32:00.930Z,2.10
2022-08-11T12:33:35.144Z,2.30
2022-08-11T12:35:09.235Z,1.87
2022-08-11T12:36:41.061Z,2.17
2022-08-11T12:38:29.943Z,1.95
2022-08-11T12:40:16.699Z,1.93
2022-08-11T12:42:19.096Z,1.78
2022-08-11T12:43:57.482Z,2.08
2022-08-11T12:45:30.748Z,1.85
2022-08-11T12:49:15.929Z,1.83
2022-08-11T12:50:47.626Z,1.78
2022-08-11T12:52:19.465Z,1.73
2022-08-11T12:53:51.262Z,1.88
2022-08-11T12:55:23.005Z,1.84
2022-08-11T12:56:54.864Z,1.85
2022-08-11T12:58:32.029Z,1.93
2022-08-11T13:00:03.907Z,1.84
2022-08-11T13:01:35.719Z,1.84
2022-08-11T13:03:07.512Z,1.89
2022-08-11T13:04:39.627Z,2.01
2022-08-11T13:06:12.562Z,1.89
2022-08-11T13:07:50.622Z,1.77
2022-08-11T13:09:23.539Z,1.82
2022-08-11T13:11:00.577Z,2.03
2022-08-11T13:12:32.579Z,1.80
2022-08-11T13:14:12.132Z,1.85
2022-08-11T13:15:46.931Z,2.06
2022-08-11T13:17:18.808Z,1.77
2022-08-11T13:18:50.718Z,1.95
2022-08-11T13:20:28.038Z,1.79
2022-08-11T13:22:00.030Z,1.82
2022-08-11T13:23:31.969Z,1.73
2022-08-11T13:25:03.752Z,1.67
2022-08-11T13:26:47.466Z,1.87
2022-08-11T13:28:27.150Z,1.96
2022-08-11T13:29:58.889Z,1.78
2022-08-11T13:31:31.905Z,1.95
2022-08-11T13:33:08.880Z,1.99
2022-08-11T13:34:40.603Z,1.96
2022-08-11T13:36:12.576Z,1.88
2022-08-11T13:38:19.080Z,1.82
2022-08-11T13:39:52.178Z,1.80
2022-08-11T13:41:24.038Z,1.83
2022-08-11T13:42:55.867Z,2.06
2022-08-11T13:44:27.669Z,2.04
2022-08-11T13:45:59.477Z,1.66
2022-08-11T13:47:31.534Z,1.97
2022-08-11T13:49:08.519Z,1.94
2022-08-11T13:50:40.476Z,1.80
2022-08-11T13:52:12.957Z,1.85
2022-08-11T13:53:44.873Z,1.86
2022-08-11T13:55:33.424Z,1.85
2022-08-11T13:58:06.348Z,1.92
2022-08-11T13:59:56.410Z,1.94
2022-08-11T14:02:21.346Z,1.70
2022-08-11T14:04:30.706Z,1.84
2022-08-11T14:06:03.656Z,1.91
2022-08-11T14:07:35.575Z,1.97
2022-08-11T14:09:07.473Z,1.87
2022-08-11T14:10:39.324Z,1.89
2022-08-11T14:12:21.552Z,1.92
2022-08-11T14:13:55.746Z,1.81
2022-08-11T14:15:27.566Z,2.01
2022-08-11T14:16:59.538Z,1.88
2022-08-11T14:18:31.198Z,1.88
2022-08-11T14:20:03.005Z,1.82
2022-08-11T14:22:10.864Z,1.73
2022-08-11T14:23:47.809Z,1.98
2022-08-11T14:25:20.358Z,1.83
2022-08-11T14:26:59.857Z,1.90
2022-08-11T14:28:43.722Z,1.94
2022-08-11T14:30:16.402Z,1.85
2022-08-11T14:31:48.123Z,1.76
2022-08-11T14:33:20.385Z,1.77
2022-08-11T14:34:53.076Z,1.84
2022-08-11T14:36:24.871Z,1.79
2022-08-11T14:37:56.762Z,1.90
2022-08-11T14:39:28.604Z,1.77
2022-08-11T14:41:00.745Z,1.97
2022-08-11T14:42:32.466Z,1.90
2022-08-11T14:44:13.075Z,1.84
2022-08-11T14:45:55.490Z,1.85
2022-08-11T14:47:35.739Z,1.74
2022-08-11T14:49:07.640Z,1.80
2022-08-11T14:50:39.697Z,2.03
2022-08-11T14:52:11.608Z,1.98
2022-08-11T14:53:58.474Z,1.81
2022-08-11T14:55:30.802Z,1.92
2022-08-11T14:57:02.667Z,1.95
2022-08-11T14:58:34.513Z,1.99
2022-08-11T15:00:06.205Z,1.91
2022-08-11T15:01:38.001Z,1.95
2022-08-11T15:03:09.790Z,1.72
2022-08-11T15:04:42.551Z,1.98
2022-08-11T15:06:14.219Z,1.97
2022-08-11T15:07:46.471Z,1.96
2022-08-11T15:09:18.350Z,1.77
2022-08-11T15:10:56.437Z,1.82
2022-08-11T15:12:32.463Z,2.08
2022-08-11T15:14:04.868Z,1.83
2022-08-11T15:15:36.792Z,1.82
2022-08-11T15:17:08.594Z,1.72
2022-08-11T15:18:40.280Z,1.71
2022-08-11T15:20:12.086Z,1.73
2022-08-11T15:21:44.092Z,1.72
2022-08-11T15:23:15.908Z,1.65
2022-08-11T15:24:47.685Z,1.72
2022-08-11T15:26:19.537Z,1.81
2022-08-11T15:27:51.471Z,1.81
2022-08-11T15:29:25.761Z,1.56
2022-08-11T15:30:57.466Z,1.93
2022-08-11T15:32:29.201Z,1.86
2022-08-11T15:34:01.087Z,1.83
2022-08-11T15:35:39.027Z,1.71
2022-08-11T15:37:11.503Z,1.73
2022-08-11T15:38:43.391Z,2.06
2022-08-11T15:40:31.153Z,2.00
2022-08-11T15:42:04.199Z,1.87
2022-08-11T15:43:35.923Z,2.01
2022-08-11T15:45:07.722Z,1.96
2022-08-11T15:46:39.592Z,1.99
2022-08-11T15:48:11.503Z,1.93
2022-08-11T15:50:11.666Z,1.86
2022-08-11T15:51:45.431Z,1.93
2022-08-11T15:53:17.278Z,1.97
2022-08-11T15:54:49.236Z,1.88
2022-08-11T15:56:26.156Z,1.85
2022-08-11T15:57:57.877Z,1.90
2022-08-11T15:59:41.517Z,1.81
2022-08-11T16:01:15.463Z,1.60
2022-08-11T16:02:49.033Z,1.79
2022-08-11T16:04:25.841Z,1.99
2022-08-11T16:05:57.718Z,2.50
2022-08-11T16:07:29.495Z,2.07
2022-08-11T16:09:02.676Z,2.00
2022-08-11T16:10:34.464Z,1.85
2022-08-11T16:12:06.340Z,1.78
2022-08-11T16:13:38.087Z,1.99
2022-08-11T16:15:10.128Z,2.05
2022-08-11T16:16:41.999Z,1.97
2022-08-11T16:18:20.151Z,1.83
2022-08-11T16:19:57.087Z,2.09
2022-08-11T16:21:34.668Z,2.15
2022-08-11T16:23:07.952Z,2.00
2022-08-11T16:27:02.757Z,1.88
2022-08-11T16:28:41.675Z,1.95
2022-08-11T16:30:13.406Z,2.13
2022-08-11T16:31:45.131Z,2.12
2022-08-11T16:33:49.881Z,2.00
2022-08-11T16:35:23.229Z,2.10
2022-08-11T16:36:55.109Z,2.09
2022-08-11T16:38:26.828Z,2.07
2022-08-11T16:40:03.536Z,2.14
2022-08-11T16:41:35.562Z,2.07
2022-08-11T16:43:10.171Z,2.22
2022-08-11T16:44:43.084Z,1.95
2022-08-11T16:46:14.915Z,2.03
2022-08-11T16:48:03.448Z,2.07
2022-08-11T16:50:08.532Z,2.07
2022-08-11T16:51:40.279Z,2.10
2022-08-11T16:53:12.025Z,1.99
2022-08-11T16:54:44.570Z,1.99
2022-08-11T16:56:16.570Z,2.02
2022-08-11T16:57:48.699Z,2.26
2022-08-11T16:59:20.564Z,2.05
2022-08-11T17:00:52.400Z,1.88
2022-08-11T17:02:25.653Z,1.99
2022-08-11T17:03:57.372Z,2.21
2022-08-11T17:05:29.092Z,2.01
2022-08-11T17:07:00.834Z,2.18
2022-08-11T17:08:32.619Z,2.32
2022-08-11T17:10:04.346Z,2.11
2022-08-11T17:12:03.783Z,1.90
2022-08-11T17:13:35.797Z,1.97
2022-08-11T17:15:07.992Z,2.04
2022-08-11T17:16:39.652Z,2.34
2022-08-11T17:18:11.393Z,1.93
2022-08-11T17:20:43.301Z,1.88
2022-08-11T17:22:16.051Z,1.98
2022-08-11T17:23:47.808Z,2.08
2022-08-11T17:25:24.936Z,2.07
2022-08-11T17:26:56.717Z,1.95
2022-08-11T17:28:28.793Z,2.10
2022-08-11T17:30:00.582Z,2.05
2022-08-11T17:31:32.637Z,2.09
2022-08-11T17:33:04.406Z,2.10
2022-08-11T17:34:36.222Z,2.26
2022-08-11T17:36:07.960Z,2.10
2022-08-11T17:37:40.129Z,2.12
2022-08-11T17:39:12.283Z,2.00
2022-08-11T17:40:44.491Z,2.08
2022-08-11T17:42:16.405Z,1.87
2022-08-11T17:43:48.352Z,2.08
2022-08-11T17:45:20.348Z,2.15
2022-08-11T17:46:52.918Z,2.33
2022-08-11T17:48:25.024Z,1.97
2022-08-11T17:49:56.799Z,2.06
2022-08-11T17:51:48.466Z,2.34
2022-08-11T17:53:20.497Z,2.39
2022-08-11T17:54:52.513Z,2.47
2022-08-11T17:56:27.421Z,2.18
2022-08-11T17:57:59.644Z,2.12
2022-08-11T17:59:32.206Z,2.25
2022-08-11T18:01:08.812Z,2.10
2022-08-11T18:02:41.478Z,2.23
2022-08-11T18:04:15.286Z,2.28
2022-08-11T18:05:47.404Z,2.66
2022-08-11T18:07:19.026Z,2.14
2022-08-11T18:08:51.027Z,2.45
2022-08-11T18:10:22.753Z,2.04
2022-08-11T18:12:09.804Z,2.44
2022-08-11T18:13:44.322Z,2.61
2022-08-11T18:15:16.030Z,2.30
2022-08-11T18:16:54.085Z,2.32
2022-08-11T18:18:25.795Z,2.34
2022-08-11T18:19:57.532Z,2.30
2022-08-11T18:21:29.360Z,2.37
2022-08-11T18:23:11.154Z,2.19
2022-08-11T18:24:47.800Z,2.10
2022-08-11T18:26:24.762Z,2.07
2022-08-11T18:27:56.575Z,2.35
2022-08-11T18:29:28.610Z,2.28
2022-08-11T18:31:03.395Z,2.19
2022-08-11T18:32:49.642Z,2.11
2022-08-11T18:34:22.096Z,2.07
2022-08-11T18:35:53.950Z,2.35
2022-08-11T18:37:29.289Z,2.18
2022-08-11T18:39:11.184Z,2.43
2022-08-11T18:40:42.916Z,2.45
2022-08-11T18:42:18.859Z,2.17
2022-08-11T18:44:01.201Z,2.34
2022-08-11T18:45:38.470Z,2.60
2022-08-11T18:47:18.053Z,2.66
2022-08-11T18:49:01.250Z,2.65
2022-08-11T18:50:38.733Z,2.52
2022-08-11T18:52:11.771Z,2.54
2022-08-11T18:53:48.447Z,2.57
2022-08-11T18:55:20.287Z,2.35
2022-08-11T18:56:52.415Z,3.18
2022-08-11T18:58:24.291Z,2.68
2022-08-11T18:59:56.221Z,2.56
2022-08-11T19:01:28.052Z,2.44
2022-08-11T19:02:59.719Z,2.46
2022-08-11T19:04:31.394Z,2.47
2022-08-11T19:06:38.478Z,2.44
2022-08-11T19:08:11.323Z,2.40
2022-08-11T19:09:47.983Z,2.75
2022-08-11T19:11:20.103Z,2.57
2022-08-11T19:12:54.696Z,2.87
2022-08-11T19:14:26.379Z,2.69
2022-08-11T19:16:03.270Z,2.44
2022-08-11T19:17:44.337Z,4.04
2022-08-11T19:19:23.206Z,3.43
2022-08-11T19:21:00.065Z,2.81
2022-08-11T19:22:31.939Z,2.69
2022-08-11T19:24:03.920Z,2.60
2022-08-11T19:25:35.819Z,2.56
2022-08-11T19:27:07.740Z,2.65
2022-08-11T19:28:39.772Z,3.04
2022-08-11T19:30:13.306Z,2.71
2022-08-11T19:31:45.852Z,2.77
2022-08-11T19:33:17.425Z,2.58
2022-08-11T19:35:23.205Z,2.47
2022-08-11T19:36:55.315Z,2.77
2022-08-11T19:38:26.915Z,2.76
2022-08-11T19:39:58.754Z,2.80
2022-08-11T19:41:52.371Z,2.86
2022-08-11T19:43:29.142Z,2.71
2022-08-11T19:45:10.753Z,2.85
2022-08-11T19:46:42.700Z,2.94
2022-08-11T19:48:31.067Z,2.74
2022-08-11T19:50:03.874Z,2.81
2022-08-11T19:52:13.176Z,2.90
2022-08-11T19:53:45.178Z,2.73
2022-08-11T19:55:18.119Z,2.79
2022-08-11T19:57:25.564Z,2.82
2022-08-11T19:58:57.478Z,2.87
2022-08-11T20:00:35.018Z,2.76
2022-08-11T20:02:13.739Z,2.94
2022-08-11T20:03:51.567Z,2.72
2022-08-11T20:05:28.082Z,2.62
2022-08-11T20:07:00.430Z,2.71
2022-08-11T20:08:38.961Z,3.01
2022-08-11T20:10:11.088Z,2.88
2022-08-11T20:11:52.944Z,2.80
2022-08-11T20:13:24.967Z,2.83
2022-08-11T20:14:58.769Z,2.95
2022-08-11T20:16:30.737Z,2.60
2022-08-11T20:18:02.729Z,2.90
2022-08-11T20:19:55.562Z,2.65
2022-08-11T20:21:32.435Z,2.66
2022-08-11T20:23:05.762Z,2.66
2022-08-11T20:24:38.116Z,2.89
2022-08-11T20:26:30.259Z,2.99
2022-08-11T20:28:04.003Z,2.99
2022-08-11T20:29:44.404Z,2.70
2022-08-11T20:31:51.221Z,3.02
2022-08-11T20:33:23.434Z,2.92
2022-08-11T20:34:55.825Z,2.83
2022-08-11T20:36:28.448Z,3.02
2022-08-11T20:38:00.657Z,2.90
2022-08-11T20:39:34.432Z,3.09
2022-08-11T20:41:06.534Z,2.90
2022-08-11T20:42:38.882Z,3.20
2022-08-11T20:44:16.131Z,2.95
2022-08-11T20:45:55.196Z,3.14
2022-08-11T20:47:28.965Z,3.09
2022-08-11T20:49:02.235Z,3.24
2022-08-11T20:50:46.296Z,3.05
2022-08-11T20:52:18.441Z,3.08
2022-08-11T20:53:50.910Z,3.10
2022-08-11T20:55:45.766Z,2.92
2022-08-11T20:57:50.437Z,2.93
2022-08-11T20:59:38.531Z,2.94
2022-08-11T21:01:38.482Z,2.84
2022-08-11T21:03:12.749Z,2.96
2022-08-11T21:14:04.032Z,3.08
2022-08-11T21:16:01.583Z,2.95
2022-08-11T21:17:34.933Z,3.03
2022-08-11T21:19:06.504Z,2.84
2022-08-11T21:20:40.010Z,2.88
2022-08-11T21:22:12.381Z,2.77
2022-08-11T21:23:44.061Z,2.67
2022-08-11T21:25:15.975Z,2.80
2022-08-11T21:26:47.852Z,2.87
2022-08-11T21:28:19.564Z,2.77
2022-08-11T21:29:52.525Z,2.71
2022-08-11T21:31:29.180Z,2.77